createdAt,value
2023-04-13T00:00:52.802Z,96.42
2023-04-13T00:01:52.989Z,96.01
2023-04-13T00:02:53.151Z,96.73
2023-04-13T00:03:53.036Z,96.31
2023-04-13T00:04:53.087Z,96.21
2023-04-13T00:05:53.475Z,96.11
2023-04-13T00:06:53.119Z,95.90
2023-04-13T00:07:53.252Z,96.11
2023-04-13T00:08:53.245Z,96.37
2023-04-13T00:09:53.399Z,94.82
2023-04-13T00:10:53.350Z,95.03
2023-04-13T00:11:53.426Z,94.76
2023-04-13T00:12:53.570Z,95.03
2023-04-13T00:13:53.553Z,95.03
2023-04-13T00:14:53.603Z,95.03
2023-04-13T00:15:53.691Z,95.14
2023-04-13T00:16:53.783Z,95.24
2023-04-13T00:17:53.880Z,95.24
2023-04-13T00:18:53.833Z,95.14
2023-04-13T00:19:53.927Z,95.54
2023-04-13T00:20:53.955Z,94.82
2023-04-13T00:21:54.028Z,94.51
2023-04-13T00:22:54.118Z,94.72
2023-04-13T00:23:54.113Z,94.72
2023-04-13T00:24:54.166Z,94.82
2023-04-13T00:25:54.221Z,94.82
2023-04-13T00:26:54.338Z,94.62
2023-04-13T00:27:54.366Z,94.62
2023-04-13T00:28:54.478Z,94.93
2023-04-13T00:29:54.547Z,95.03
2023-04-13T00:30:54.556Z,94.72
2023-04-13T00:31:54.578Z,94.62
2023-04-13T00:32:54.673Z,94.51
2023-04-13T00:33:54.709Z,94.72
2023-04-13T00:34:54.829Z,94.72
2023-04-13T00:35:54.818Z,94.72
2023-04-13T00:36:54.873Z,94.82
2023-04-13T00:37:54.953Z,94.82
2023-04-13T00:38:55.076Z,94.93
2023-04-13T00:39:55.077Z,94.31
2023-04-13T00:40:55.130Z,94.20
2023-04-13T00:41:55.182Z,94.10
2023-04-13T00:42:55.237Z,94.93
2023-04-13T00:43:55.371Z,94.93
2023-04-13T00:44:55.362Z,94.72
2023-04-13T00:45:55.429Z,94.72
2023-04-13T00:46:55.452Z,94.10
2023-04-13T00:47:55.532Z,94.31
2023-04-13T00:48:55.630Z,94.20
2023-04-13T00:49:55.627Z,94.31
2023-04-13T00:50:55.742Z,94.41
2023-04-13T00:51:55.770Z,94.20
2023-04-13T00:52:55.792Z,94.51
2023-04-13T00:53:55.973Z,94.10
2023-04-13T00:54:55.911Z,93.89
2023-04-13T00:55:56.002Z,93.99
2023-04-13T00:56:56.027Z,93.58
2023-04-13T00:57:56.088Z,93.95
2023-04-13T00:58:56.135Z,93.95
2023-04-13T00:59:56.244Z,93.33
2023-04-13T01:00:56.302Z,93.99
2023-04-13T01:01:56.438Z,93.54
2023-04-13T01:02:56.613Z,93.27
2023-04-13T01:03:56.652Z,93.48
2023-04-13T01:04:56.572Z,93.85
2023-04-13T01:05:56.574Z,93.12
2023-04-13T01:06:56.576Z,93.54
2023-04-13T01:07:56.615Z,93.43
2023-04-13T01:08:56.687Z,93.54
2023-04-13T01:09:56.738Z,93.43
2023-04-13T01:10:56.856Z,93.02
2023-04-13T01:11:56.822Z,92.81
2023-04-13T01:12:56.892Z,92.71
2023-04-13T01:13:57.171Z,93.12
2023-04-13T01:14:57.049Z,92.46
2023-04-13T01:15:57.072Z,92.46
2023-04-13T01:16:57.197Z,92.97
2023-04-13T01:17:57.272Z,92.25
2023-04-13T01:18:57.210Z,92.25
2023-04-13T01:19:57.350Z,92.46
2023-04-13T01:20:57.332Z,92.46
2023-04-13T01:21:57.399Z,92.15
2023-04-13T01:22:57.472Z,92.25
2023-04-13T01:23:57.888Z,92.97
2023-04-13T01:24:57.632Z,92.46
2023-04-13T01:25:57.693Z,92.25
2023-04-13T01:26:57.667Z,91.63
2023-04-13T01:27:57.711Z,92.87
2023-04-13T01:28:57.762Z,92.46
2023-04-13T01:29:57.893Z,92.46
2023-04-13T01:30:57.890Z,92.87
2023-04-13T01:31:57.985Z,92.46
2023-04-13T01:32:58.005Z,91.80
2023-04-13T01:33:58.311Z,91.59
2023-04-13T01:34:58.127Z,91.59
2023-04-13T01:35:58.146Z,92.11
2023-04-13T01:36:58.134Z,92.00
2023-04-13T01:37:58.196Z,92.21
2023-04-13T01:38:58.237Z,91.34
2023-04-13T01:39:58.323Z,91.86
2023-04-13T01:40:58.420Z,91.59
2023-04-13T01:41:58.380Z,91.86
2023-04-13T01:42:58.430Z,92.27
2023-04-13T01:43:59.016Z,92.07
2023-04-13T01:44:58.559Z,92.27
2023-04-13T01:45:58.712Z,92.58
2023-04-13T01:46:58.785Z,92.48
2023-04-13T01:47:58.735Z,92.68
2023-04-13T01:48:58.776Z,92.58
2023-04-13T01:49:58.797Z,92.68
2023-04-13T01:50:58.880Z,92.83
2023-04-13T01:51:58.939Z,92.58
2023-04-13T01:52:58.946Z,92.27
2023-04-13T01:53:59.125Z,91.90
2023-04-13T01:54:59.023Z,92.58
2023-04-13T01:55:59.066Z,92.32
2023-04-13T01:56:59.186Z,92.68
2023-04-13T01:57:59.166Z,92.68
2023-04-13T01:58:59.248Z,92.17
2023-04-13T01:59:59.257Z,92.58
2023-04-13T02:00:59.418Z,92.38
2023-04-13T02:01:59.472Z,92.07
2023-04-13T02:02:59.528Z,92.07
2023-04-13T02:03:59.888Z,92.02
2023-04-13T02:04:59.511Z,92.27
2023-04-13T02:05:59.594Z,92.27
2023-04-13T02:06:59.554Z,92.27
2023-04-13T02:07:59.613Z,93.10
2023-04-13T02:08:59.708Z,92.38
2023-04-13T02:09:59.704Z,92.79
2023-04-13T02:10:59.780Z,93.10
2023-04-13T02:11:59.850Z,92.99
2023-04-13T02:12:59.822Z,92.99
2023-04-13T02:14:00.087Z,92.58
2023-04-13T02:14:59.916Z,92.89
2023-04-13T02:15:59.972Z,92.89
2023-04-13T02:17:00.159Z,93.20
2023-04-13T02:18:00.125Z,93.41
2023-04-13T02:19:00.209Z,93.10
2023-04-13T02:20:00.220Z,93.20
2023-04-13T02:21:00.212Z,92.99
2023-04-13T02:22:00.242Z,93.30
2023-04-13T02:23:00.409Z,93.20
2023-04-13T02:24:00.670Z,93.41
2023-04-13T02:25:00.449Z,93.30
2023-04-13T02:26:00.437Z,93.41
2023-04-13T02:27:00.467Z,93.72
2023-04-13T02:28:00.513Z,93.72
2023-04-13T02:29:00.558Z,93.41
2023-04-13T02:30:00.684Z,93.72
2023-04-13T02:31:00.668Z,93.20
2023-04-13T02:32:00.723Z,93.41
2023-04-13T02:33:00.760Z,93.41
2023-04-13T02:34:01.069Z,94.23
2023-04-13T02:35:00.908Z,94.03
2023-04-13T02:36:00.880Z,94.81
2023-04-13T02:37:00.949Z,94.03
2023-04-13T02:38:00.979Z,94.65
2023-04-13T02:39:01.046Z,94.85
2023-04-13T02:40:01.121Z,94.75
2023-04-13T02:41:01.093Z,95.37
2023-04-13T02:42:01.169Z,95.21
2023-04-13T02:43:01.212Z,94.96
2023-04-13T02:44:01.570Z,94.65
2023-04-13T02:45:01.271Z,94.65
2023-04-13T02:46:01.323Z,94.96
2023-04-13T02:47:01.365Z,94.65
2023-04-13T02:48:01.472Z,95.37
2023-04-13T02:49:01.420Z,94.69
2023-04-13T02:50:01.541Z,94.69
2023-04-13T02:51:01.538Z,95.17
2023-04-13T02:52:01.589Z,95.17
2023-04-13T02:53:01.711Z,94.75
2023-04-13T02:54:01.965Z,95.06
2023-04-13T02:55:01.741Z,94.44
2023-04-13T02:56:01.790Z,94.44
2023-04-13T02:57:01.828Z,94.44
2023-04-13T02:58:01.917Z,94.54
2023-04-13T02:59:01.900Z,94.44
2023-04-13T03:00:01.938Z,94.54
2023-04-13T03:01:02.051Z,94.75
2023-04-13T03:02:02.174Z,94.65
2023-04-13T03:03:02.180Z,94.54
2023-04-13T03:04:02.171Z,94.34
2023-04-13T03:05:02.284Z,94.34
2023-04-13T03:06:02.260Z,94.75
2023-04-13T03:07:02.349Z,94.09
2023-04-13T03:08:02.300Z,93.88
2023-04-13T03:09:02.475Z,93.93
2023-04-13T03:10:02.382Z,94.09
2023-04-13T03:11:02.410Z,93.98
2023-04-13T03:12:02.509Z,93.98
2023-04-13T03:13:02.514Z,93.98
2023-04-13T03:14:02.709Z,94.92
2023-04-13T03:15:02.696Z,94.60
2023-04-13T03:16:02.627Z,93.82
2023-04-13T03:17:02.766Z,93.88
2023-04-13T03:18:02.752Z,93.57
2023-04-13T03:19:02.903Z,93.26
2023-04-13T03:20:02.798Z,93.05
2023-04-13T03:21:02.916Z,93.26
2023-04-13T03:22:02.902Z,93.05
2023-04-13T03:23:02.961Z,93.78
2023-04-13T03:24:03.044Z,93.20
2023-04-13T03:25:03.036Z,93.78
2023-04-13T03:26:03.061Z,93.37
2023-04-13T03:27:03.144Z,93.47
2023-04-13T03:28:03.164Z,93.16
2023-04-13T03:29:03.280Z,93.16
2023-04-13T03:30:03.269Z,93.57
2023-04-13T03:31:03.296Z,93.26
2023-04-13T03:32:03.398Z,93.73
2023-04-13T03:33:03.418Z,93.22
2023-04-13T03:34:03.616Z,93.26
2023-04-13T03:35:03.543Z,93.57
2023-04-13T03:36:03.543Z,93.47
2023-04-13T03:37:03.531Z,93.57
2023-04-13T03:38:03.588Z,94.19
2023-04-13T03:39:03.628Z,94.35
2023-04-13T03:40:03.744Z,94.15
2023-04-13T03:41:03.713Z,94.35
2023-04-13T03:42:03.748Z,94.40
2023-04-13T03:43:03.773Z,94.50
2023-04-13T03:44:03.820Z,95.02
2023-04-13T03:45:03.917Z,94.71
2023-04-13T03:46:03.953Z,94.81
2023-04-13T03:47:03.932Z,94.71
2023-04-13T03:48:03.998Z,94.50
2023-04-13T03:49:04.012Z,95.22
2023-04-13T03:50:04.136Z,95.53
2023-04-13T03:51:04.091Z,95.32
2023-04-13T03:52:04.157Z,95.95
2023-04-13T03:53:04.169Z,95.53
2023-04-13T03:54:04.267Z,95.74
2023-04-13T03:55:04.350Z,95.74
2023-04-13T03:56:04.306Z,95.32
2023-04-13T03:57:04.324Z,95.22
2023-04-13T03:58:04.402Z,95.53
2023-04-13T03:59:04.391Z,95.95
2023-04-13T04:00:04.443Z,96.15
2023-04-13T04:01:04.590Z,96.05
2023-04-13T04:02:04.541Z,96.05
2023-04-13T04:03:04.609Z,95.95
2023-04-13T04:04:05.016Z,96.05
2023-04-13T04:05:04.603Z,96.15
2023-04-13T04:06:04.733Z,96.15
2023-04-13T04:07:04.685Z,95.95
2023-04-13T04:08:04.729Z,95.84
2023-04-13T04:09:04.777Z,96.05
2023-04-13T04:10:04.807Z,95.95
2023-04-13T04:11:04.885Z,96.15
2023-04-13T04:12:04.882Z,96.47
2023-04-13T04:13:04.930Z,95.95
2023-04-13T04:14:04.976Z,96.36
2023-04-13T04:15:05.013Z,96.15
2023-04-13T04:16:05.139Z,96.47
2023-04-13T04:17:05.081Z,96.36
2023-04-13T04:18:05.287Z,96.36
2023-04-13T04:19:05.174Z,96.56
2023-04-13T04:20:05.211Z,96.77
2023-04-13T04:21:05.293Z,97.29
2023-04-13T04:22:05.264Z,97.60
2023-04-13T04:23:05.312Z,97.50
2023-04-13T04:24:05.341Z,97.50
2023-04-13T04:25:05.386Z,97.81
2023-04-13T04:26:05.498Z,97.39
2023-04-13T04:27:05.512Z,97.08
2023-04-13T04:28:05.484Z,97.50
2023-04-13T04:29:05.549Z,97.91
2023-04-13T04:30:05.575Z,97.39
2023-04-13T04:31:05.694Z,97.71
2023-04-13T04:32:05.917Z,97.08
2023-04-13T04:33:05.747Z,97.60
2023-04-13T04:34:05.742Z,97.50
2023-04-13T04:35:05.780Z,97.60
2023-04-13T04:36:05.869Z,97.71
2023-04-13T04:37:14.104Z,97.71
2023-04-13T04:38:07.016Z,97.60
2023-04-13T04:39:05.938Z,98.11
2023-04-13T04:40:05.992Z,98.11
2023-04-13T04:41:06.028Z,98.22
2023-04-13T04:42:06.080Z,97.91
2023-04-13T04:43:06.185Z,98.63
2023-04-13T04:44:06.158Z,98.57
2023-04-13T04:45:06.290Z,98.57
2023-04-13T04:46:06.290Z,99.40
2023-04-13T04:47:06.391Z,98.11
2023-04-13T04:48:06.385Z,98.94
2023-04-13T04:49:06.414Z,98.88
2023-04-13T04:50:06.475Z,98.99
2023-04-13T04:51:06.454Z,99.09
2023-04-13T04:52:06.513Z,99.15
2023-04-13T04:53:06.731Z,99.15
2023-04-13T04:54:06.584Z,99.56
2023-04-13T04:55:06.705Z,98.88
2023-04-13T04:56:06.701Z,99.15
2023-04-13T04:57:06.716Z,99.15
2023-04-13T04:58:06.789Z,98.63
2023-04-13T04:59:06.832Z,99.15
2023-04-13T05:00:06.919Z,98.63
2023-04-13T05:01:07.058Z,99.25
2023-04-13T05:02:07.008Z,99.35
2023-04-13T05:03:06.989Z,98.94
2023-04-13T05:04:07.091Z,98.94
2023-04-13T05:05:07.142Z,98.94
2023-04-13T05:06:07.117Z,98.84
2023-04-13T05:07:07.164Z,98.43
2023-04-13T05:08:07.304Z,99.25
2023-04-13T05:09:07.316Z,98.22
2023-04-13T05:10:07.346Z,98.32
2023-04-13T05:11:07.336Z,98.53
2023-04-13T05:12:07.402Z,99.05
2023-04-13T05:13:07.451Z,98.74
2023-04-13T05:14:07.799Z,98.11
2023-04-13T05:15:07.529Z,98.28
2023-04-13T05:16:07.750Z,98.43
2023-04-13T05:17:07.717Z,98.94
2023-04-13T05:18:07.682Z,99.05
2023-04-13T05:19:07.801Z,98.18
2023-04-13T05:20:07.782Z,98.18
2023-04-13T05:21:07.795Z,98.07
2023-04-13T05:22:07.839Z,97.66
2023-04-13T05:23:07.889Z,97.55
2023-04-13T05:24:08.009Z,97.66
2023-04-13T05:25:07.988Z,97.76
2023-04-13T05:26:08.011Z,98.18
2023-04-13T05:27:08.047Z,97.45
2023-04-13T05:28:08.088Z,98.07
2023-04-13T05:29:08.208Z,97.86
2023-04-13T05:30:08.222Z,98.28
2023-04-13T05:31:08.326Z,98.28
2023-04-13T05:32:08.390Z,98.69
2023-04-13T05:33:08.362Z,98.07
2023-04-13T05:34:08.435Z,98.49
2023-04-13T05:35:08.441Z,98.69
2023-04-13T05:36:08.458Z,98.49
2023-04-13T05:37:08.428Z,98.58
2023-04-13T05:38:08.483Z,98.79
2023-04-13T05:39:08.493Z,98.69
2023-04-13T05:40:08.579Z,98.38
2023-04-13T05:41:08.604Z,99.21
2023-04-13T05:42:08.604Z,98.58
2023-04-13T05:43:08.622Z,99.10
2023-04-13T05:44:08.687Z,99.00
2023-04-13T05:45:08.777Z,99.52
2023-04-13T05:46:08.794Z,99.31
2023-04-13T05:47:08.766Z,99.31
2023-04-13T05:48:08.897Z,98.90
2023-04-13T05:49:08.873Z,99.52
2023-04-13T05:50:08.951Z,99.31
2023-04-13T05:51:08.950Z,99.00
2023-04-13T05:52:08.973Z,98.90
2023-04-13T05:53:09.027Z,99.31
2023-04-13T05:54:09.063Z,99.62
2023-04-13T05:55:09.167Z,99.21
2023-04-13T05:56:09.135Z,99.62
2023-04-13T05:57:09.214Z,99.62
2023-04-13T05:58:09.225Z,99.41
2023-04-13T05:59:09.286Z,99.52
2023-04-13T06:00:09.370Z,99.52
2023-04-13T06:01:09.336Z,99.52
2023-04-13T06:02:09.505Z,99.52
2023-04-13T06:03:09.667Z,99.10
2023-04-13T06:04:09.726Z,99.31
2023-04-13T06:05:09.773Z,99.21
2023-04-13T06:06:09.628Z,99.31
2023-04-13T06:07:09.583Z,99.31
2023-04-13T06:08:09.627Z,99.52
2023-04-13T06:09:09.692Z,99.31
2023-04-13T06:10:09.770Z,99.06
2023-04-13T06:11:09.759Z,99.47
2023-04-13T06:12:09.791Z,99.99
2023-04-13T06:13:09.839Z,98.70
2023-04-13T06:14:09.957Z,99.84
2023-04-13T06:15:10.220Z,98.91
2023-04-13T06:16:10.014Z,98.70
2023-04-13T06:17:10.073Z,98.80
2023-04-13T06:18:10.012Z,98.91
2023-04-13T06:19:10.038Z,98.19
2023-04-13T06:20:10.213Z,98.19
2023-04-13T06:21:10.160Z,98.80
2023-04-13T06:22:10.141Z,98.50
2023-04-13T06:23:10.182Z,98.60
2023-04-13T06:24:10.229Z,98.60
2023-04-13T06:25:10.310Z,98.39
2023-04-13T06:26:10.276Z,97.77
2023-04-13T06:27:10.314Z,98.03
2023-04-13T06:28:10.359Z,97.98
2023-04-13T06:29:10.383Z,98.35
2023-04-13T06:30:10.492Z,98.80
2023-04-13T06:32:10.479Z,98.66
2023-04-13T06:33:10.525Z,97.67
2023-04-13T06:34:10.553Z,97.67
2023-04-13T06:35:10.651Z,98.70
2023-04-13T06:36:10.629Z,98.70
2023-04-13T06:37:10.656Z,98.19
2023-04-13T06:38:10.665Z,97.56
2023-04-13T06:39:10.741Z,97.47
2023-04-13T06:40:11.047Z,97.77
2023-04-13T06:41:10.830Z,97.63
2023-04-13T06:42:10.792Z,97.36
2023-04-13T06:43:18.934Z,97.56
2023-04-13T06:44:11.850Z,97.67
2023-04-13T06:45:10.951Z,97.31
2023-04-13T06:46:11.012Z,97.63
2023-04-13T06:47:10.961Z,97.42
2023-04-13T06:48:11.013Z,97.42
2023-04-13T06:49:11.116Z,97.11
2023-04-13T06:50:11.058Z,97.01
2023-04-13T06:51:11.133Z,96.70
2023-04-13T06:52:11.126Z,97.01
2023-04-13T06:53:11.165Z,97.58
2023-04-13T06:54:11.185Z,96.96
2023-04-13T06:55:11.298Z,96.24
2023-04-13T06:56:11.329Z,95.52
2023-04-13T06:57:11.266Z,95.93
2023-04-13T06:58:11.328Z,95.62
2023-04-13T06:59:11.378Z,95.62
2023-04-13T07:00:26.042Z,94.96
2023-04-13T07:01:12.582Z,94.96
2023-04-13T07:02:11.519Z,95.31
2023-04-13T07:03:11.587Z,95.52
2023-04-13T07:04:11.728Z,95.78
2023-04-13T07:05:11.571Z,95.21
2023-04-13T07:06:11.582Z,94.96
2023-04-13T07:07:11.592Z,94.34
2023-04-13T07:08:11.609Z,94.24
2023-04-13T07:09:11.625Z,94.30
2023-04-13T07:10:11.594Z,94.30
2023-04-13T07:11:11.694Z,94.60
2023-04-13T07:12:11.704Z,94.09
2023-04-13T07:13:11.677Z,93.06
2023-04-13T07:14:11.744Z,92.96
2023-04-13T07:15:11.760Z,92.82
2023-04-13T07:16:11.883Z,93.12
2023-04-13T07:17:13.337Z,92.82
2023-04-13T07:18:11.782Z,92.03
2023-04-13T07:19:11.822Z,91.83
2023-04-13T07:20:11.864Z,92.34
2023-04-13T07:21:12.040Z,93.06
2023-04-13T07:22:11.875Z,92.96
2023-04-13T07:23:11.901Z,92.96
2023-04-13T07:24:11.951Z,92.86
2023-04-13T07:25:12.031Z,92.96
2023-04-13T07:26:11.988Z,92.86
2023-04-13T07:27:12.001Z,92.59
2023-04-13T07:28:12.108Z,92.69
2023-04-13T07:29:12.066Z,92.55
2023-04-13T07:30:12.098Z,92.65
2023-04-13T07:31:12.152Z,91.93
2023-04-13T07:32:12.127Z,92.55
2023-04-13T07:33:12.228Z,92.86
2023-04-13T07:34:12.156Z,92.44
2023-04-13T07:35:12.182Z,92.24
2023-04-13T07:36:12.185Z,92.86
2023-04-13T07:37:12.289Z,92.55
2023-04-13T07:38:13.641Z,92.50
2023-04-13T07:39:12.241Z,93.02
2023-04-13T07:40:33.315Z,93.12
2023-04-13T07:41:12.433Z,92.50
2023-04-13T07:42:12.289Z,91.78
2023-04-13T07:43:13.358Z,91.27
2023-04-13T07:44:12.376Z,91.13
2023-04-13T07:45:12.940Z,91.74
2023-04-13T07:46:12.395Z,91.85
2023-04-13T07:47:12.429Z,91.74
2023-04-13T07:48:12.493Z,91.74
2023-04-13T07:49:12.620Z,92.36
2023-04-13T07:50:12.445Z,91.95
2023-04-13T07:51:12.501Z,91.19
2023-04-13T07:52:12.532Z,91.02
2023-04-13T07:53:12.484Z,91.19
2023-04-13T07:54:13.943Z,91.08
2023-04-13T07:55:12.494Z,90.57
2023-04-13T07:56:12.575Z,90.57
2023-04-13T07:57:12.685Z,90.06
2023-04-13T07:58:12.722Z,89.48
2023-04-13T07:59:12.588Z,89.58
2023-04-13T08:00:12.596Z,90.09
2023-04-13T08:01:12.612Z,89.58
2023-04-13T08:02:12.779Z,89.48
2023-04-13T08:03:12.872Z,89.11
2023-04-13T08:04:12.757Z,89.79
2023-04-13T08:05:12.774Z,89.62
2023-04-13T08:06:12.707Z,88.86
2023-04-13T08:07:12.680Z,89.38
2023-04-13T08:08:12.771Z,89.69
2023-04-13T08:09:12.744Z,89.23
2023-04-13T08:10:12.808Z,89.13
2023-04-13T08:11:12.774Z,89.34
2023-04-13T08:12:12.930Z,88.41
2023-04-13T08:13:12.816Z,88.68
2023-04-13T08:14:12.821Z,88.17
2023-04-13T08:15:12.845Z,87.96
2023-04-13T08:16:12.898Z,87.71
2023-04-13T08:17:12.963Z,88.43
2023-04-13T08:18:12.887Z,87.67
2023-04-13T08:19:12.919Z,87.77
2023-04-13T08:20:12.934Z,86.85
2023-04-13T08:21:12.923Z,84.90
2023-04-13T08:22:12.917Z,86.03
2023-04-13T08:23:12.966Z,86.03
2023-04-13T08:24:12.934Z,85.93
2023-04-13T08:25:12.943Z,86.33
2023-04-13T08:26:12.992Z,85.17
2023-04-13T08:27:12.971Z,86.54
2023-04-13T08:28:13.072Z,85.68
2023-04-13T08:29:13.032Z,85.58
2023-04-13T08:30:13.016Z,84.86
2023-04-13T08:31:12.992Z,85.06
2023-04-13T08:32:13.149Z,84.45
2023-04-13T08:33:13.010Z,84.86
2023-04-13T08:34:13.013Z,84.00
2023-04-13T08:35:13.177Z,84.96
2023-04-13T08:36:13.022Z,84.00
2023-04-13T08:37:13.041Z,83.69
2023-04-13T08:38:13.047Z,83.69
2023-04-13T08:39:13.050Z,84.52
2023-04-13T08:40:13.139Z,83.39
2023-04-13T08:41:13.059Z,82.97
2023-04-13T08:42:13.073Z,85.19
2023-04-13T08:43:13.069Z,84.72
2023-04-13T08:44:13.090Z,84.00
2023-04-13T08:45:13.128Z,84.52
2023-04-13T08:46:13.252Z,83.80
2023-04-13T08:47:13.075Z,83.69
2023-04-13T08:48:13.126Z,84.45
2023-04-13T08:49:13.213Z,84.66
2023-04-13T08:50:13.167Z,84.80
2023-04-13T08:51:13.073Z,85.82
2023-04-13T08:52:15.079Z,86.33
2023-04-13T08:53:13.101Z,86.44
2023-04-13T08:54:13.097Z,87.37
2023-04-13T08:55:13.985Z,87.88
2023-04-13T08:56:13.107Z,88.29
2023-04-13T08:57:13.333Z,87.67
2023-04-13T08:58:13.092Z,88.23
2023-04-13T08:59:13.123Z,89.46
2023-04-13T09:00:13.162Z,89.56
2023-04-13T09:01:13.174Z,90.69
2023-04-13T09:02:13.380Z,90.18
2023-04-13T09:03:14.705Z,89.46
2023-04-13T09:04:13.570Z,89.19
2023-04-13T09:05:13.517Z,88.98
2023-04-13T09:06:13.201Z,89.81
2023-04-13T09:07:13.256Z,90.73
2023-04-13T09:08:13.182Z,91.49
2023-04-13T09:09:13.185Z,91.55
2023-04-13T09:10:13.189Z,90.83
2023-04-13T09:11:13.186Z,91.55
2023-04-13T09:12:13.256Z,92.48
2023-04-13T09:13:13.649Z,92.17
2023-04-13T09:14:13.221Z,92.17
2023-04-13T09:15:13.272Z,92.58
2023-04-13T09:16:13.245Z,92.73
2023-04-13T09:17:13.353Z,92.48
2023-04-13T09:18:13.277Z,92.63
2023-04-13T09:19:13.297Z,92.48
2023-04-13T09:20:13.374Z,92.83
2023-04-13T09:21:13.282Z,92.83
2023-04-13T09:22:13.268Z,92.52
2023-04-13T09:23:13.277Z,92.42
2023-04-13T09:24:13.312Z,92.73
2023-04-13T09:25:13.374Z,92.83
2023-04-13T09:26:13.340Z,92.93
2023-04-13T09:27:13.398Z,92.73
2023-04-13T09:28:13.332Z,92.73
2023-04-13T09:29:13.369Z,92.73
2023-04-13T09:30:13.402Z,93.35
2023-04-13T09:31:13.394Z,94.17
2023-04-13T09:32:13.462Z,94.02
2023-04-13T09:33:13.475Z,92.52
2023-04-13T09:34:13.499Z,92.01
2023-04-13T09:35:13.431Z,92.58
2023-04-13T09:36:13.474Z,92.07
2023-04-13T09:37:13.460Z,91.66
2023-04-13T09:38:13.521Z,91.45
2023-04-13T09:39:13.492Z,92.38
2023-04-13T09:40:13.526Z,92.03
2023-04-13T09:41:13.529Z,92.54
2023-04-13T09:42:13.517Z,91.31
2023-04-13T09:43:13.614Z,90.85
2023-04-13T09:44:13.564Z,91.78
2023-04-13T09:45:13.595Z,92.29
2023-04-13T09:46:13.634Z,91.78
2023-04-13T09:47:13.585Z,91.47
2023-04-13T09:48:13.618Z,91.42
2023-04-13T09:49:13.663Z,90.30
2023-04-13T09:50:13.573Z,90.71
2023-04-13T09:51:13.590Z,90.09
2023-04-13T09:52:13.592Z,88.66
2023-04-13T09:53:14.009Z,89.69
2023-04-13T09:54:13.882Z,89.48
2023-04-13T09:55:13.602Z,89.78
2023-04-13T09:56:13.623Z,89.42
2023-04-13T09:57:13.629Z,89.52
2023-04-13T09:58:13.724Z,89.72
2023-04-13T09:59:13.704Z,89.72
2023-04-13T10:00:13.648Z,89.62
2023-04-13T10:01:13.744Z,89.62
2023-04-13T10:02:13.763Z,89.42
2023-04-13T10:03:13.835Z,89.62
2023-04-13T10:04:13.795Z,89.52
2023-04-13T10:05:13.719Z,89.52
2023-04-13T10:06:13.702Z,89.31
2023-04-13T10:07:13.713Z,89.62
2023-04-13T10:08:15.266Z,89.52
2023-04-13T10:09:13.791Z,89.62
2023-04-13T10:10:13.776Z,89.58
2023-04-13T10:11:13.766Z,89.58
2023-04-13T10:12:13.861Z,88.04
2023-04-13T10:13:21.564Z,87.84
2023-04-13T10:14:14.766Z,88.10
2023-04-13T10:15:13.927Z,88.51
2023-04-13T10:16:13.832Z,88.21
2023-04-13T10:17:13.839Z,87.94
2023-04-13T10:18:13.872Z,88.00
2023-04-13T10:19:13.842Z,88.00
2023-04-13T10:20:14.062Z,88.41
2023-04-13T10:21:13.823Z,88.41
2023-04-13T10:22:13.805Z,87.79
2023-04-13T10:23:13.880Z,87.28
2023-04-13T10:24:13.831Z,87.18
2023-04-13T10:25:18.682Z,87.38
2023-04-13T10:26:14.887Z,86.98
2023-04-13T10:27:13.958Z,87.90
2023-04-13T10:28:13.814Z,87.63
2023-04-13T10:29:13.807Z,87.94
2023-04-13T10:30:13.890Z,87.53
2023-04-13T10:31:13.902Z,88.14
2023-04-13T10:32:13.824Z,87.94
2023-04-13T10:33:13.846Z,87.94
2023-04-13T10:34:14.030Z,87.94
2023-04-13T10:35:13.870Z,89.27
2023-04-13T10:36:13.829Z,88.35
2023-04-13T10:37:13.950Z,89.17
2023-04-13T10:38:13.841Z,89.37
2023-04-13T10:39:13.868Z,89.21
2023-04-13T10:40:14.057Z,88.14
2023-04-13T10:41:13.929Z,88.08
2023-04-13T10:42:15.416Z,88.08
2023-04-13T10:43:13.873Z,88.80
2023-04-13T10:44:13.898Z,88.14
2023-04-13T10:45:13.977Z,88.96
2023-04-13T10:46:14.076Z,89.64
2023-04-13T10:47:13.993Z,89.64
2023-04-13T10:48:14.012Z,89.60
2023-04-13T10:49:13.917Z,88.12
2023-04-13T10:50:13.967Z,88.29
2023-04-13T10:51:14.515Z,88.23
2023-04-13T10:52:13.927Z,87.57
2023-04-13T10:53:13.901Z,87.06
2023-04-13T10:54:13.908Z,87.77
2023-04-13T10:55:13.979Z,84.50
2023-04-13T10:56:13.960Z,86.34
2023-04-13T10:57:13.878Z,86.24
2023-04-13T10:58:13.959Z,87.06
2023-04-13T10:59:13.844Z,85.48
2023-04-13T11:00:13.844Z,86.10
2023-04-13T11:01:13.965Z,86.57
2023-04-13T11:02:13.996Z,85.55
2023-04-13T11:03:14.008Z,85.91
2023-04-13T11:04:16.181Z,84.72
2023-04-13T11:05:13.786Z,84.31
2023-04-13T11:06:13.877Z,84.07
2023-04-13T11:07:13.797Z,82.43
2023-04-13T11:08:13.857Z,82.34
2023-04-13T11:09:16.633Z,81.35
2023-04-13T11:10:13.705Z,80.02
2023-04-13T11:11:15.063Z,80.63
2023-04-13T11:12:13.734Z,81.65
2023-04-13T11:13:13.656Z,81.79
2023-04-13T11:14:13.687Z,80.83
2023-04-13T11:15:13.703Z,81.18
2023-04-13T11:16:13.772Z,80.98
2023-04-13T11:17:13.832Z,80.67
2023-04-13T11:18:13.616Z,81.70
2023-04-13T11:19:13.572Z,81.59
2023-04-13T11:20:13.603Z,81.15
2023-04-13T11:21:13.614Z,80.36
2023-04-13T11:22:13.606Z,80.02
2023-04-13T11:23:13.513Z,80.83
2023-04-13T11:24:13.511Z,80.53
2023-04-13T11:25:13.489Z,79.30
2023-04-13T11:26:13.524Z,79.30
2023-04-13T11:27:13.486Z,80.05
2023-04-13T11:28:13.418Z,78.83
2023-04-13T11:29:13.406Z,79.85
2023-04-13T11:30:13.496Z,78.79
2023-04-13T11:31:13.462Z,77.46
2023-04-13T11:32:13.461Z,78.28
2023-04-13T11:33:13.482Z,78.38
2023-04-13T11:34:13.393Z,78.04
2023-04-13T11:35:13.336Z,77.87
2023-04-13T11:36:13.404Z,77.36
2023-04-13T11:37:13.333Z,76.95
2023-04-13T11:38:13.277Z,76.95
2023-04-13T11:39:13.349Z,76.64
2023-04-13T11:40:13.307Z,77.97
2023-04-13T11:41:17.068Z,77.87
2023-04-13T11:42:13.354Z,76.91
2023-04-13T11:43:13.228Z,77.15
2023-04-13T11:44:13.223Z,77.83
2023-04-13T11:45:13.259Z,78.34
2023-04-13T11:46:13.233Z,78.86
2023-04-13T11:47:13.254Z,77.73
2023-04-13T11:48:13.160Z,78.24
2023-04-13T11:49:13.128Z,77.70
2023-04-13T11:50:15.467Z,77.56
2023-04-13T11:51:13.083Z,77.15
2023-04-13T11:52:13.091Z,76.43
2023-04-13T11:53:13.134Z,76.74
2023-04-13T11:54:13.037Z,77.42
2023-04-13T11:55:22.267Z,75.58
2023-04-13T11:56:14.005Z,76.60
2023-04-13T11:57:13.029Z,76.29
2023-04-13T11:58:13.129Z,76.53
2023-04-13T11:59:12.941Z,75.07
2023-04-13T12:00:12.958Z,76.50
2023-04-13T12:01:14.962Z,76.70
2023-04-13T12:02:21.979Z,77.52
2023-04-13T12:03:34.477Z,76.50
2023-04-13T12:04:16.402Z,76.70
2023-04-13T12:05:13.000Z,76.70
2023-04-13T12:06:13.253Z,76.60
2023-04-13T12:07:13.710Z,77.79
2023-04-13T12:08:13.416Z,76.56
2023-04-13T12:09:15.786Z,76.56
2023-04-13T12:11:36.761Z,77.01
2023-04-13T12:12:46.442Z,77.59
2023-04-13T12:14:17.062Z,76.46
2023-04-13T12:15:33.946Z,77.86
2023-04-13T12:18:15.212Z,76.19
2023-04-13T12:19:14.125Z,76.80
2023-04-13T12:20:12.584Z,76.15
2023-04-13T12:21:13.400Z,75.23
2023-04-13T12:22:12.415Z,74.93
2023-04-13T12:23:21.922Z,72.28
2023-04-13T12:24:13.242Z,73.50
2023-04-13T12:25:12.240Z,73.10
2023-04-13T12:28:12.102Z,73.26
2023-04-13T12:29:12.022Z,73.97
2023-04-13T12:30:11.989Z,73.88
2023-04-13T12:31:12.069Z,73.64
2023-04-13T12:32:11.912Z,73.23
2023-04-13T12:33:11.898Z,70.28
2023-04-13T12:34:11.870Z,70.41
2023-04-13T12:35:11.811Z,71.43
2023-04-13T12:36:11.780Z,70.82
2023-04-13T12:37:11.933Z,70.72
2023-04-13T12:38:11.682Z,71.94
2023-04-13T12:39:11.653Z,70.00
2023-04-13T12:40:11.807Z,70.72
2023-04-13T12:41:11.584Z,70.61
2023-04-13T12:42:11.653Z,70.92
2023-04-13T12:43:11.815Z,70.21
2023-04-13T12:44:11.548Z,70.92
2023-04-13T12:45:11.437Z,70.72
2023-04-13T12:46:11.482Z,69.49
2023-04-13T12:47:11.424Z,68.57
2023-04-13T12:48:11.440Z,70.31
2023-04-13T12:49:11.333Z,70.95
2023-04-13T12:50:11.279Z,70.65
2023-04-13T12:51:11.245Z,69.12
2023-04-13T12:52:11.229Z,70.75
2023-04-13T12:53:11.239Z,69.83
2023-04-13T12:54:11.171Z,71.67
2023-04-13T12:55:11.182Z,71.12
2023-04-13T12:56:11.163Z,71.02
2023-04-13T12:57:11.129Z,70.24
2023-04-13T12:58:11.017Z,69.63
2023-04-13T12:59:11.001Z,71.36
2023-04-13T13:00:10.988Z,71.36